Relevés horaires Bierset (Belgique)


Relevés horaires à Bierset - Dimanche 26 Janv. 2020
Heure UTC1 Température [°C] Vent [km/h] Hum. [%] Pres.4 [hPa] Visi. [Km] Nébu. [octa] Préc.5 [mm] Cond.
2m. Res. Ros. Dir.2 Vit. Moy. Raf.3
23:00 6.5 3.9 3.8 SSO 13.0 14.8 18.5 83 1013.5(-1.4/3h) 15 6/8 -- --
22:00 6.7 4.1 4.1 SSO 13.0 14.8 20.4 83 1013.9(-1.2/3h) 15 6/8 -- --
21:00 7.0 4.5 4.2 S 13.0 13.0 18.5 82 1014.2(-0.8/3h) 15 6/8 -- --
20:00 6.9 4.4 4.4 S 13.0 13.0 16.7 84 1014.9(0.0/3h) 15 6/8 -- --
19:00 7.0 5.2 4.4 SSO 9.3 11.1 16.7 83 1015.1(0.1/3h) 15 5/8 -- --
18:00 7.9 5.9 4.6 SSO 11.1 13.0 18.5 80 1015(-0.1/3h) 20 7/8 0/12h
--
17:00 8.4 6.5 4.5 SSO 11.1 11.1 18.5 76 1014.8(-0.5/3h) 25 7/8 -- --
16:00 8.6 6.8 4.5 SSO 11.1 11.1 18.5 75 1014.9(-0.8/3h) 25 6/8 -- --
15:00 9.3 8.3 4.4 SSO 7.4 13.0 16.7 71 1014.9(-1.2/3h) 25 6/8 -- --
14:00 9.8 8.2 4.5 SSO 11.1 13.0 16.7 70 1015.2(-1.3/3h) 25 1/8 -- --
13:00 9.4 7.7 4.5 S 11.1 11.1 16.7 71 1015.6(-1.5/3h) 15 3/8 -- --
12:00 8.3 6.4 3.7 S 11.1 11.1 18.5 73 1016.2(-0.7/3h) 15 3/8 0/6h
--
11:00 7.0 4.8 3.4 S 11.1 11.1 14.8 78 1016.8(0.0/3h) 12 1/8 -- --
10:00 4.8 2.6 2.5 S 9.3 11.1 16.7 85 1017.5(0.6/3h) 10 5/8 -- --
09:00 5.1 2.6 2.6 S 11.1 11.1 18.5 84 1017.1(0.2/3h) 10 7/8 -- --
08:00 4.7 2.5 2.1 SSE 9.3 9.3 14.8 83 1017(0.0/3h) 12 6/8 -- --
07:00 5.2 3.1 2.5 S 9.3 9.3 18.5 83 1016.9(-0.3/3h) 12 7/8 -- --
06:00 5.3 3.6 2.6 S 7.4 9.3 16.7 83 1016.9(-0.7/3h) 12 7/8 0/12h
--
05:00 5.2 3.5 2.7 SSE 7.4 9.3 14.8 84 1017(-0.8/3h) 15 7/8 -- --
04:00 5.2 3.5 2.7 S 7.4 7.4 11.1 84 1017.2(-1.1/3h) 15 6/8 -- --
03:00 5.1 3.4 2.5 SSE 7.4 9.3 16.7 83 1017.6(-1.4/3h) 25 6/8 -- --
02:00 4.7 2.5 2.3 SE 9.3 9.3 16.7 84 1017.9(-1.4/3h) 25 7/8 -- --
01:00 5.0 2.8 2.2 SSE 9.3 9.3 11.1 82 1018.3(-1.5/3h) 25 5/8 -- --

1 Coordinated Universal Time. Actuellement il est 07:00 locale et 05:00 UTC.

2 Le vent souffle depuis la direction indiquée vers la direction oposée.

3 Les rafales max. sont disponible 40 min après l'heure du relevé.

4 Pour les stations d'altitude (plus de 600m) le géopotentiel du niveau le plus proche de la pression obligatoire est indiqué.

5 Les stations disposant d'un diffuseur peuvent indiquer "trace". Cela signifie que des précipitations ont touchés le sol mais que la quantité est inférieure à 0.1 mm.

Récapitulatif de la journée
Température [°C] Vent [km/h] Ensoleillement4 [h] Precipitations totale5 [mm] Pression [Hpa]
Min1 Max.2 Moy.3 Max. Min Max.
0.8 9.9 11.1 20.4 0 h 0 min 0 1013.5 1018.3

1 Température minimale relevée entre 18:00 UTC la veille et 18:00 UTC le jour donné.

2 Température maximale relevée entre 06:00 UTC le jour donné et 06:00 UTC le lendemain.

3 Vent moyen de la journée basé sur les relevés horaires.

4 Ensoleillement en heures relevé entre 06:00 UTC la veille et 06:00 UTC le jour donné.

5 Précipitations totales tombées entre 06:00 UTC la jour donné et 06:00 UTC le lendemain.

Graphiques horaires